createdAt,value
2019-05-06T00:04:10.000Z,4.15
2019-05-06T00:14:14.030Z,5.70
2019-05-06T00:24:15.805Z,4.25
2019-05-06T00:34:17.839Z,5.05
2019-05-06T00:44:19.820Z,4.77
2019-05-06T00:54:21.762Z,5.80
2019-05-06T01:04:24.504Z,6.08
2019-05-06T01:14:26.678Z,5.20
2019-05-06T01:24:28.622Z,6.58
2019-05-06T01:34:30.671Z,6.60
2019-05-06T01:44:33.897Z,7.13
2019-05-06T01:54:35.936Z,7.85
2019-05-06T02:04:37.977Z,8.23
2019-05-06T02:14:39.908Z,7.70
2019-05-06T02:24:43.853Z,8.50
2019-05-06T02:34:46.194Z,8.45
2019-05-06T02:44:48.269Z,8.95
2019-05-06T02:54:53.377Z,9.63
2019-05-06T03:04:54.057Z,9.58
2019-05-06T03:14:56.168Z,9.98
2019-05-06T03:24:58.167Z,9.53
2019-05-06T03:35:23.016Z,10.53
2019-05-06T03:45:04.868Z,9.50
2019-05-06T03:55:06.832Z,9.50
2019-05-06T04:05:09.180Z,8.83
2019-05-06T04:15:14.085Z,9.03
2019-05-06T04:25:23.342Z,9.45
2019-05-06T04:35:24.945Z,9.80
2019-05-06T04:45:26.977Z,10.63
2019-05-06T04:55:33.374Z,9.23
2019-05-06T05:05:34.701Z,9.70
2019-05-06T05:15:36.680Z,10.60
2019-05-06T05:25:38.715Z,11.00
2019-05-06T05:35:43.118Z,10.23
2019-05-06T05:45:44.725Z,33.80
2019-05-06T05:55:46.685Z,11.13
2019-05-06T06:05:48.808Z,10.53
2019-05-06T06:15:52.118Z,10.13
2019-05-06T06:25:54.848Z,10.23
2019-05-06T06:35:56.901Z,11.40
2019-05-06T06:45:59.112Z,11.03
2019-05-06T06:56:02.030Z,11.87
2019-05-06T07:16:05.563Z,10.85
2019-05-06T07:26:07.647Z,11.23
2019-05-06T07:36:09.656Z,11.67
2019-05-06T07:46:12.719Z,10.60
2019-05-06T07:56:14.780Z,8.83
2019-05-06T08:06:16.803Z,9.43
2019-05-06T08:16:18.719Z,9.10
2019-05-06T08:26:22.476Z,8.33
2019-05-06T08:36:24.778Z,5.95
2019-05-06T08:46:26.966Z,5.57
2019-05-06T08:56:28.926Z,5.30
2019-05-06T09:06:34.215Z,6.00
2019-05-06T09:16:34.723Z,7.10
2019-05-06T09:26:36.717Z,8.17
2019-05-06T09:36:43.950Z,10.13
2019-05-06T09:46:42.871Z,10.05
2019-05-06T09:56:44.944Z,10.97
2019-05-06T10:06:56.506Z,11.90
2019-05-06T10:16:52.379Z,11.38
2019-05-06T10:26:54.494Z,11.57
2019-05-06T10:37:18.981Z,12.10
2019-05-06T10:47:18.810Z,10.25
2019-05-06T10:57:22.041Z,9.47
2019-05-06T11:07:31.372Z,8.20
2019-05-06T11:17:27.939Z,6.58
2019-05-06T11:27:32.701Z,6.83
2019-05-06T11:37:46.278Z,6.35
2019-05-06T11:47:37.454Z,7.17
2019-05-06T11:57:41.672Z,5.93
2019-05-06T12:07:53.122Z,5.47
2019-05-06T12:17:49.056Z,4.70
2019-05-06T12:27:52.605Z,5.22
2019-05-06T12:37:54.786Z,5.50
2019-05-06T12:47:56.855Z,6.47
2019-05-06T12:57:58.808Z,7.73
2019-05-06T13:08:05.124Z,7.53
2019-05-06T13:18:07.097Z,6.45
2019-05-06T13:28:08.354Z,6.72
2019-05-06T13:38:10.491Z,7.40
2019-05-06T13:48:13.269Z,7.45
2019-05-06T13:58:15.442Z,9.73
2019-05-06T14:08:17.400Z,8.07
2019-05-06T14:18:19.374Z,7.03
2019-05-06T14:28:21.325Z,8.53
2019-05-06T14:38:24.677Z,9.53
2019-05-06T14:48:26.914Z,8.65
2019-05-06T14:58:28.926Z,8.90
2019-05-06T15:08:32.248Z,10.93
2019-05-06T15:18:34.354Z,9.90
2019-05-06T15:28:36.331Z,12.50
2019-05-06T15:38:38.284Z,16.00
2019-05-06T15:48:41.998Z,11.15
2019-05-06T15:58:44.015Z,9.98
2019-05-06T16:08:46.044Z,8.50
2019-05-06T16:18:48.048Z,7.60
2019-05-06T16:28:49.972Z,7.75
2019-05-06T16:38:52.537Z,7.20
2019-05-06T16:48:55.760Z,7.87
2019-05-06T16:58:57.774Z,9.27
2019-05-06T17:09:14.646Z,8.37
2019-05-06T17:19:04.867Z,8.45
2019-05-06T17:29:06.807Z,7.17
2019-05-06T17:39:09.079Z,6.97
2019-05-06T17:49:12.886Z,8.43
2019-05-06T17:59:14.911Z,9.85
2019-05-06T18:09:17.090Z,10.70
2019-05-06T18:19:19.011Z,10.83
2019-05-06T18:29:22.262Z,10.65
2019-05-06T18:39:24.387Z,11.80
2019-05-06T18:49:26.483Z,10.33
2019-05-06T18:59:28.543Z,11.93
2019-05-06T19:09:32.462Z,12.77
2019-05-06T19:19:35.009Z,11.00
2019-05-06T19:29:37.050Z,12.05
2019-05-06T19:39:39.067Z,11.90
2019-05-06T19:49:42.397Z,11.37
2019-05-06T19:59:44.643Z,12.00
2019-05-06T20:09:46.644Z,11.57
2019-05-06T20:19:48.695Z,11.33
2019-05-06T20:29:52.307Z,12.33
2019-05-06T20:39:54.472Z,12.25
2019-05-06T20:49:56.468Z,13.13
2019-05-06T20:59:58.470Z,13.27
2019-05-06T21:10:02.269Z,13.87
2019-05-06T21:20:08.137Z,13.98
2019-05-06T21:30:13.094Z,14.83
2019-05-06T21:40:14.971Z,13.93
2019-05-06T21:50:17.095Z,14.30
2019-05-06T22:00:20.721Z,15.30
2019-05-06T22:10:24.906Z,14.18
2019-05-06T22:20:26.811Z,14.68
2019-05-06T22:30:28.746Z,16.50
2019-05-06T22:40:32.688Z,16.67
2019-05-06T22:50:34.644Z,16.60
2019-05-06T23:00:36.652Z,17.07
2019-05-06T23:10:38.622Z,15.78
2019-05-06T23:20:43.029Z,15.60
2019-05-06T23:30:44.994Z,16.27
2019-05-06T23:41:23.851Z,14.00
2019-05-06T23:52:02.547Z,13.80
